Time;durP1;ratioP1;P1;durP2;ratioP2;P2;SDS_P1;SDS_P2;PMS_P1;PMS_P2;Temp;Humidity;BMP_temperature;BMP_pressure;BME280_temperature;BME280_humidity;BME280_pressure;Samples;Min_cycle;Max_cycle;Signal;HPM_P1;HPM_P2
2022/08/30 00:03:03;;;;;;;;;2.50;1.50;;;;;22.88;36.56;101409.66;5002848;28;45406;-79
2022/08/30 00:05:29;;;;;;;;;4.75;4.00;;;;;22.87;36.56;101409.69;5002572;28;45402;-80
2022/08/30 00:07:54;;;;;;;;;4.25;3.00;;;;;22.81;36.98;101412.66;5001418;28;48355;-80
2022/08/30 00:10:20;;;;;;;;;4.25;3.00;;;;;22.75;36.95;101411.13;5013487;28;45421;-80
2022/08/30 00:12:47;;;;;;;;;4.00;4.00;;;;;22.76;36.87;101423.59;5017825;28;45228;-80
2022/08/30 00:15:13;;;;;;;;;3.67;3.67;;;;;22.76;36.86;101428.97;5001061;28;46348;-80
2022/08/30 00:17:40;;;;;;;;;3.00;2.50;;;;;22.76;36.66;101428.97;5000876;28;46266;-80
2022/08/30 00:20:09;;;;;;;;;4.33;3.00;;;;;22.77;36.96;101425.34;5000102;28;45905;-81
2022/08/30 00:22:35;;;;;;;;;6.75;3.00;;;;;22.75;36.94;101423.66;5002327;28;45454;-80
2022/08/30 00:25:00;;;;;;;;;4.33;3.00;;;;;22.70;36.97;101426.56;5002177;28;45407;-80
2022/08/30 00:27:27;;;;;;;;;4.00;2.67;;;;;22.71;37.13;101425.63;5001050;28;47659;-80
2022/08/30 00:29:53;;;;;;;;;3.00;3.00;;;;;22.72;37.00;101423.78;5000749;28;45249;-80
2022/08/30 00:32:20;;;;;;;;;2.75;2.75;;;;;22.75;37.00;101429.03;5000816;28;45267;-80
2022/08/30 00:34:50;;;;;;;;;4.75;3.75;;;;;22.75;37.09;101421.88;5000820;28;45190;-80
2022/08/30 00:37:16;;;;;;;;;4.75;3.25;;;;;22.74;37.15;101414.72;5002010;28;45443;-80
2022/08/30 00:39:41;;;;;;;;;3.67;3.67;;;;;22.74;37.56;101412.06;5002389;28;45286;-80
2022/08/30 00:42:08;;;;;;;;;5.33;5.00;;;;;22.73;37.29;101409.44;5002372;28;45182;-80
2022/08/30 00:44:34;;;;;;;;;4.00;3.00;;;;;22.76;37.00;101409.31;5001494;28;45439;-80
2022/08/30 00:47:00;;;;;;;;;2.67;2.67;;;;;22.73;37.65;101406.78;5008726;28;45210;-80
2022/08/30 00:49:27;;;;;;;;;7.50;4.00;;;;;22.74;37.15;101413.88;5022700;28;45470;-80
2022/08/30 00:51:53;;;;;;;;;3.00;3.00;;;;;22.68;37.63;101402.47;5023134;28;45409;-80
2022/08/30 00:54:19;;;;;;;;;2.00;2.00;;;;;22.70;37.23;101406.91;5021310;28;45816;-79
2022/08/30 00:56:47;;;;;;;;;5.00;4.00;;;;;22.72;37.44;101413.94;5020997;28;47273;-80
2022/08/30 00:59:13;;;;;;;;;2.00;2.00;;;;;22.70;37.54;101410.47;5020305;28;45292;-80
2022/08/30 01:01:38;;;;;;;;;3.33;3.33;;;;;22.71;37.34;101414.00;5020478;28;45281;-78
2022/08/30 01:04:07;;;;;;;;;3.00;3.00;;;;;22.68;37.33;101412.31;5022769;28;45180;-80
2022/08/30 01:06:33;;;;;;;;;5.75;4.50;;;;;22.70;37.85;101417.66;5021526;28;47411;-80
2022/08/30 01:09:00;;;;;;;;;2.00;2.00;;;;;22.66;37.37;101411.50;5021380;28;45454;-80
2022/08/30 01:11:26;;;;;;;;;5.00;3.50;;;;;22.62;37.79;101405.41;5021658;28;45400;-81
2022/08/30 01:13:53;;;;;;;;;4.00;4.00;;;;;22.59;37.67;101396.63;5021218;28;45494;-79
2022/08/30 01:16:20;;;;;;;;;3.67;2.33;;;;;22.55;37.86;101411.97;5022668;28;45291;-79
2022/08/30 01:18:46;;;;;;;;;6.33;5.00;;;;;22.53;37.99;101418.34;5022264;28;45387;-80
2022/08/30 01:21:25;;;;;;;;;2.00;2.00;;;;;22.53;37.80;101418.34;5020308;28;45383;-80
2022/08/30 01:23:54;;;;;;;;;5.00;2.67;;;;;22.50;37.73;101422.03;5020982;28;45481;-80
2022/08/30 01:26:21;;;;;;;;;4.00;4.00;;;;;22.52;38.02;101424.66;5019957;28;48544;-80
2022/08/30 01:28:50;;;;;;;;;4.75;4.50;;;;;22.52;38.05;101428.22;5016748;28;45297;-81
2022/08/30 01:31:16;;;;;;;;;4.67;3.33;;;;;22.50;37.75;101421.16;5001262;28;45357;-81
2022/08/30 01:33:42;;;;;;;;;3.67;3.00;;;;;22.47;37.97;101435.59;5000001;28;45526;-80
2022/08/30 01:36:11;;;;;;;;;5.33;3.67;;;;;22.44;37.85;101433.03;5000102;28;47157;-80
2022/08/30 01:38:52;;;;;;;;;4.00;4.00;;;;;22.38;38.07;101427.94;5001596;28;45403;-80
2022/08/30 01:41:24;;;;;;;;;3.00;3.00;;;;;22.35;38.11;101425.41;5001452;28;45224;-80
2022/08/30 01:43:51;;;;;;;;;8.75;5.25;;;;;22.31;38.39;101426.44;4999968;28;45447;-80
2022/08/30 01:46:19;;;;;;;;;5.25;2.00;;;;;22.27;38.69;101428.38;5014405;28;45411;-80
2022/08/30 01:48:46;;;;;;;;;6.00;5.67;;;;;22.30;38.37;101432.75;5021235;28;45275;-79
2022/08/30 01:51:13;;;;;;;;;4.33;4.00;;;;;22.27;38.18;101433.75;5020045;28;45440;-80
2022/08/30 01:53:40;;;;;;;;;2.25;2.25;;;;;22.30;38.57;101430.06;5021131;28;45457;-80
2022/08/30 01:56:06;;;;;;;;;4.00;4.00;;;;;22.30;38.29;101420.22;5013164;28;46826;-80
2022/08/30 01:58:36;;;;;;;;;3.00;2.25;;;;;22.29;38.56;101425.63;5020891;28;45232;-80
2022/08/30 02:01:06;;;;;;;;;4.50;3.25;;;;;22.26;38.71;101421.25;5017619;28;45464;-80
2022/08/30 02:03:34;;;;;;;;;4.75;4.00;;;;;22.29;38.55;101425.63;5001045;28;45289;-80
2022/08/30 02:06:08;;;;;;;;;7.00;6.50;;;;;22.32;38.50;101425.50;5003238;28;45355;-81
2022/08/30 02:08:35;;;;;;;;;4.00;3.00;;;;;22.38;38.11;101449.41;5010861;28;45233;-80
2022/08/30 02:11:01;;;;;;;;;6.00;5.00;;;;;22.44;38.41;101454.50;5000822;28;45338;-80
2022/08/30 02:13:27;;;;;;;;;4.50;3.25;;;;;22.47;38.46;101470.47;5000715;28;45257;-79
2022/08/30 02:15:53;;;;;;;;;4.00;4.00;;;;;22.48;38.29;101468.66;5000459;28;46224;-80
2022/08/30 02:18:20;;;;;;;;;4.75;4.25;;;;;22.52;38.02;101467.59;5001401;28;45679;-80
2022/08/30 02:20:45;;;;;;;;;5.50;5.00;;;;;22.53;37.95;101455.91;5001294;28;45328;-80
2022/08/30 02:23:11;;;;;;;;;4.00;4.00;;;;;22.51;38.01;101455.09;5000537;28;45482;-80
2022/08/30 02:25:36;;;;;;;;;5.00;3.50;;;;;22.45;38.93;101456.25;5003397;28;46952;-80
2022/08/30 02:28:03;;;;;;;;;4.33;4.00;;;;;22.44;39.41;101449.13;5020388;28;45202;-80
2022/08/30 02:30:28;;;;;;;;;3.75;3.00;;;;;22.43;40.88;101442.91;5003200;28;45273;-80
2022/08/30 02:32:54;;;;;;;;;5.75;5.25;;;;;22.37;41.59;101437.81;5001408;28;45240;-79
2022/08/30 02:35:20;;;;;;;;;6.67;6.00;;;;;22.23;42.37;101438.34;4999348;28;47299;-80
2022/08/30 02:37:45;;;;;;;;;6.00;6.00;;;;;22.08;43.20;101447.03;5000609;28;45186;-81
2022/08/30 02:40:11;;;;;;;;;4.00;4.00;;;;;21.92;44.05;101448.53;4999247;28;45338;-80
2022/08/30 02:42:36;;;;;;;;;5.25;5.25;;;;;21.79;44.12;101453.53;4999690;28;45346;-81
2022/08/30 02:45:02;;;;;;;;;5.00;5.00;;;;;21.73;44.82;101451.97;5018402;28;47239;-81
2022/08/30 02:47:28;;;;;;;;;5.00;5.00;;;;;21.69;45.19;101452.16;5021907;28;45403;-80
2022/08/30 02:49:53;;;;;;;;;6.00;6.00;;;;;21.67;46.13;101454.88;5022030;28;45406;-80
2022/08/30 02:52:18;;;;;;;;;7.00;5.25;;;;;21.61;46.18;101448.88;5023351;28;45677;-80
2022/08/30 02:54:44;;;;;;;;;8.75;6.75;;;;;21.55;46.36;101448.19;5021547;28;48119;-80
2022/08/30 02:57:11;;;;;;;;;7.25;6.50;;;;;21.52;46.13;101464.38;5021590;28;45457;-80
2022/08/30 02:59:40;;;;;;;;;5.75;5.75;;;;;21.50;46.75;101455.53;5023073;28;45165;-80
2022/08/30 03:02:06;;;;;;;;;6.00;5.25;;;;;21.50;47.04;101446.63;5023265;28;45217;-80
2022/08/30 03:04:31;;;;;;;;;7.50;6.25;;;;;21.49;47.23;101444.84;5023806;28;46081;-81
2022/08/30 03:06:57;;;;;;;;;7.00;7.00;;;;;21.47;48.01;101458.31;5023499;28;45256;-81
2022/08/30 03:09:23;;;;;;;;;6.50;5.25;;;;;21.41;48.58;101461.25;5021762;28;45442;-80
2022/08/30 03:11:48;;;;;;;;;8.00;6.00;;;;;21.33;48.16;101457.91;5022740;28;45347;-80
2022/08/30 03:14:14;;;;;;;;;6.00;5.00;;;;;21.25;48.09;101444.84;5022791;28;45824;-80
2022/08/30 03:16:39;;;;;;;;;5.75;4.25;;;;;21.20;47.98;101437.88;5022548;28;45414;-80
2022/08/30 03:19:05;;;;;;;;;5.00;5.00;;;;;21.17;48.91;101440.66;5022788;28;45402;-80
2022/08/30 03:21:30;;;;;;;;;7.25;5.00;;;;;21.11;49.21;101431.91;5021468;28;45616;-80
2022/08/30 03:23:55;;;;;;;;;8.00;7.00;;;;;21.13;49.74;101437.22;5021290;28;47369;-80
2022/08/30 03:26:21;;;;;;;;;7.75;6.75;;;;;21.16;49.90;101439.78;5021682;28;45363;-80
2022/08/30 03:28:46;;;;;;;;;7.50;7.50;;;;;21.15;50.02;101432.72;5021450;28;45470;-80
2022/08/30 03:31:12;;;;;;;;;7.00;5.25;;;;;21.14;49.66;101421.13;5020652;28;45253;-80
2022/08/30 03:33:39;;;;;;;;;8.00;6.75;;;;;21.09;50.53;101409.72;5021212;28;45357;-81
2022/08/30 03:36:05;;;;;;;;;7.75;6.25;;;;;21.10;50.86;101399.88;5022651;28;45232;-80
2022/08/30 03:38:31;;;;;;;;;7.50;5.25;;;;;21.08;51.32;101405.25;5018951;28;45494;-79
2022/08/30 03:40:56;;;;;;;;;9.00;6.25;;;;;21.06;51.44;101403.56;5002474;28;45469;-80
2022/08/30 03:43:22;;;;;;;;;7.25;6.50;;;;;21.02;51.77;101397.47;5001171;28;47048;-81
2022/08/30 03:45:47;;;;;;;;;10.50;7.25;;;;;21.04;52.15;101402.78;5002408;28;45418;-80
2022/08/30 03:48:13;;;;;;;;;6.75;6.75;;;;;20.96;51.80;101392.34;5017567;28;45319;-81
2022/08/30 03:50:39;;;;;;;;;7.50;7.50;;;;;20.91;51.82;101376.44;5022375;28;45402;-80
2022/08/30 03:53:04;;;;;;;;;8.00;6.00;;;;;20.88;52.11;101365.84;5021906;28;46087;-80
2022/08/30 03:55:30;;;;;;;;;6.25;6.25;;;;;20.84;51.31;101360.66;5019688;28;45312;-80
2022/08/30 03:57:57;;;;;;;;;6.75;5.00;;;;;20.80;51.76;101353.69;5022568;28;45336;-80
2022/08/30 04:00:22;;;;;;;;;10.00;8.00;;;;;20.79;51.74;101351.94;5022014;28;45166;-80
2022/08/30 04:02:48;;;;;;;;;9.75;8.00;;;;;20.76;51.44;101360.94;5021685;28;45265;-80
2022/08/30 04:05:13;;;;;;;;;10.00;7.75;;;;;20.76;51.00;101368.09;5022263;28;45188;-80
2022/08/30 04:07:39;;;;;;;;;7.50;6.50;;;;;20.72;50.50;101369.16;5020824;28;45212;-79
2022/08/30 04:10:06;;;;;;;;;10.75;7.25;;;;;20.69;50.40;101375.50;5022057;28;45530;-80
2022/08/30 04:12:32;;;;;;;;;8.75;8.50;;;;;20.66;49.93;101375.56;5021852;28;47283;-80
2022/08/30 04:14:57;;;;;;;;;7.75;6.00;;;;;20.64;50.27;101366.75;5020139;28;45418;-80
2022/08/30 04:17:23;;;;;;;;;8.25;6.25;;;;;20.57;50.24;101347.34;5020650;28;45371;-80
2022/08/30 04:19:48;;;;;;;;;9.75;7.00;;;;;20.63;50.90;101362.31;5020362;28;45809;-80
2022/08/30 04:22:14;;;;;;;;;5.25;4.75;;;;;20.58;50.23;101356.25;5020169;28;47013;-80
2022/08/30 04:24:40;;;;;;;;;8.00;5.50;;;;;20.59;50.23;101371.38;5021896;28;45398;-79
2022/08/30 04:27:07;;;;;;;;;6.75;6.50;;;;;20.61;50.08;101380.22;5020520;28;45609;-81
2022/08/30 04:29:33;;;;;;;;;6.00;6.00;;;;;20.57;49.75;101379.44;5020337;28;45484;-80
2022/08/30 04:32:00;;;;;;;;;6.50;5.75;;;;;20.62;49.74;101382.84;5021539;28;46535;-80
2022/08/30 04:34:25;;;;;;;;;5.25;5.25;;;;;;;;5020424;28;46022;-81
2022/08/30 04:36:50;;;;;;;;;8.00;7.75;;;;;20.62;50.30;101373.94;5020428;28;45217;-80
2022/08/30 04:39:17;;;;;;;;;8.25;7.00;;;;;20.67;49.94;101380.88;5021634;28;45217;-80
2022/08/30 04:41:42;;;;;;;;;9.00;6.00;;;;;20.65;49.48;101363.13;5020037;28;48137;-80
2022/08/30 04:44:08;;;;;;;;;6.75;6.75;;;;;20.65;49.43;101360.47;5021317;28;45320;-80
2022/08/30 04:46:35;;;;;;;;;6.00;6.00;;;;;20.68;50.00;101366.56;5019814;28;45331;-80
2022/08/30 04:49:01;;;;;;;;;9.00;7.00;;;;;20.64;50.40;101354.25;5021340;28;44816;-80
2022/08/30 04:51:26;;;;;;;;;9.00;6.75;;;;;;;;5019955;28;46970;-80
2022/08/30 04:53:51;;;;;;;;;10.75;10.75;;;;;20.67;50.27;101356.81;5021315;28;45263;-80
2022/08/30 04:56:21;;;;;;;;;7.75;5.00;;;;;20.70;50.50;101369.19;5020020;28;45254;-80
2022/08/30 04:58:48;;;;;;;;;5.00;5.00;;;;;20.69;50.37;101370.13;5020034;28;45792;-80
2022/08/30 05:01:20;;;;;;;;;6.50;5.00;;;;;20.70;50.23;101377.22;5020502;28;45537;-80
2022/08/30 05:03:46;;;;;;;;;6.25;5.25;;;;;20.68;50.60;101363.88;5021171;28;45296;-80
2022/08/30 05:06:13;;;;;;;;;7.50;7.50;;;;;20.67;50.41;101369.31;5020701;28;45351;-80
2022/08/30 05:08:38;;;;;;;;;10.25;9.25;;;;;20.67;50.65;101371.97;5019692;28;45682;-80
2022/08/30 05:11:04;;;;;;;;;7.75;7.75;;;;;;;;5020843;28;46104;-80
2022/08/30 05:13:30;;;;;;;;;8.00;7.25;;;;;20.70;51.00;101385.25;5019621;28;45410;-79
2022/08/30 05:15:55;;;;;;;;;10.50;7.25;;;;;20.70;50.39;101385.25;5020573;28;45444;-80
2022/08/30 05:18:21;;;;;;;;;7.50;5.50;;;;;20.70;50.58;101385.25;5019864;28;45567;-80
2022/08/30 05:20:49;;;;;;;;;6.75;5.50;;;;;;;;5019484;28;46976;-80
2022/08/30 05:23:14;;;;;;;;;7.00;5.00;;;;;20.69;50.33;101394.22;5010736;28;45224;-80
2022/08/30 05:25:41;;;;;;;;;6.75;6.75;;;;;20.67;50.36;101394.25;5000571;28;45193;-80
2022/08/30 05:28:07;;;;;;;;;9.25;9.25;;;;;20.68;50.36;101401.34;5000018;28;45555;-81
2022/08/30 05:30:35;;;;;;;;;6.00;4.25;;;;;20.69;50.21;101405.78;4998894;28;47199;-81
2022/08/30 05:33:01;;;;;;;;;8.00;7.75;;;;;20.72;50.24;101403.94;5000866;28;45442;-80
2022/08/30 05:35:27;;;;;;;;;7.50;7.00;;;;;20.74;50.28;101397.56;5000824;28;45230;-80
2022/08/30 05:37:55;;;;;;;;;7.00;7.00;;;;;20.80;49.72;101401.88;5000747;28;45477;-80
2022/08/30 05:40:22;;;;;;;;;11.00;9.00;;;;;20.80;49.69;101399.19;5000483;28;45643;-81
2022/08/30 05:42:47;;;;;;;;;6.50;6.00;;;;;20.82;49.81;101400.88;4999322;28;46058;-80
2022/08/30 05:45:14;;;;;;;;;9.25;8.75;;;;;20.86;49.84;101407.84;5000168;28;45426;-81
2022/08/30 05:47:40;;;;;;;;;9.00;8.25;;;;;20.84;49.63;101404.34;5010737;28;45363;-81
2022/08/30 05:50:06;;;;;;;;;7.75;6.25;;;;;20.85;49.65;101408.78;5018745;28;47403;-81
2022/08/30 05:52:37;;;;;;;;;8.25;7.00;;;;;20.83;49.56;101412.47;5018947;28;45556;-81
2022/08/30 05:55:04;;;;;;;;;8.00;6.25;;;;;20.85;49.77;101413.25;5018530;28;45384;-81
2022/08/30 05:57:37;;;;;;;;;10.25;8.00;;;;;20.85;50.03;101424.84;5020364;28;45433;-81
2022/08/30 06:00:06;;;;;;;;;9.50;9.00;;;;;20.88;49.83;101418.53;5019870;28;46271;-81
2022/08/30 06:02:38;;;;;;;;;6.00;5.25;;;;;20.85;49.32;101418.59;5006733;28;45442;-82
2022/08/30 06:05:05;;;;;;;;;9.00;7.25;;;;;20.84;48.69;101415.06;5018852;28;45367;-81
2022/08/30 06:07:30;;;;;;;;;7.25;7.25;;;;;20.79;49.13;101417.03;5005227;28;45331;-81
2022/08/30 06:09:55;;;;;;;;;6.00;5.00;;;;;20.79;49.34;101422.38;4999185;28;47041;-81
2022/08/30 06:12:21;;;;;;;;;6.75;6.75;;;;;20.77;48.83;101420.69;5000237;28;45430;-81
2022/08/30 06:14:46;;;;;;;;;10.50;10.50;;;;;20.80;48.96;101424.16;5000285;28;45296;-81
2022/08/30 06:17:11;;;;;;;;;8.50;5.25;;;;;20.84;49.06;101419.53;4999283;28;45317;-82
2022/08/30 06:19:37;;;;;;;;;12.75;9.75;;;;;20.85;48.79;101427.53;5000150;28;45205;-81
2022/08/30 06:22:02;;;;;;;;;5.00;4.00;;;;;20.85;48.69;101424.84;5000061;28;45173;-81
2022/08/30 06:24:28;;;;;;;;;7.00;6.50;;;;;20.91;48.22;101431.78;4999113;28;45249;-81
2022/08/30 06:26:54;;;;;;;;;8.25;6.75;;;;;20.90;48.43;101430.94;5000171;28;45217;-81
2022/08/30 06:29:20;;;;;;;;;14.75;13.75;;;;;20.92;48.47;101421.00;4999957;28;45334;-81
2022/08/30 06:31:46;;;;;;;;;6.50;6.50;;;;;20.95;48.09;101422.72;4998746;28;45774;-81
2022/08/30 06:34:12;;;;;;;;;8.50;8.25;;;;;20.97;48.44;101412.81;5000064;28;45492;-81
2022/08/30 06:36:38;;;;;;;;;8.75;8.00;;;;;20.99;47.70;101424.34;4999929;28;45487;-81
2022/08/30 06:39:04;;;;;;;;;8.75;7.75;;;;;21.03;47.99;101425.09;4998391;28;47204;-81
2022/08/30 06:41:32;;;;;;;;;8.25;8.00;;;;;21.06;47.61;101420.53;4998430;28;45444;-81
2022/08/30 06:44:00;;;;;;;;;11.25;7.25;;;;;21.08;47.68;101423.13;4998358;28;45234;-81
2022/08/30 06:46:31;;;;;;;;;9.50;7.00;;;;;21.13;47.72;101429.19;4999577;28;45489;-81
2022/08/30 06:48:57;;;;;;;;;8.00;8.00;;;;;21.23;48.10;101433.28;5017941;28;47194;-81
2022/08/30 06:51:30;;;;;;;;;7.25;7.25;;;;;21.31;47.79;101422.31;5015946;28;45261;-81
2022/08/30 06:53:56;;;;;;;;;12.00;8.00;;;;;21.41;47.75;101421.06;5000520;28;45420;-81
2022/08/30 06:56:22;;;;;;;;;6.75;6.00;;;;;21.52;47.22;101431.38;5019100;28;45467;-81
2022/08/30 06:58:49;;;;;;;;;8.75;6.25;;;;;21.56;46.63;101424.94;5017681;28;47152;-81
2022/08/30 07:01:24;;;;;;;;;5.50;5.50;;;;;21.60;46.68;101431.94;5018764;28;45371;-81
2022/08/30 07:03:50;;;;;;;;;9.00;7.25;;;;;21.62;46.58;101426.50;5019230;28;45363;-81
2022/08/30 07:06:16;;;;;;;;;8.25;7.75;;;;;21.67;46.75;101432.56;5018805;28;45270;-81
2022/08/30 07:08:42;;;;;;;;;10.00;8.50;;;;;21.73;46.03;101432.31;5018757;28;45395;-81
2022/08/30 07:11:08;;;;;;;;;11.50;10.00;;;;;21.79;46.36;101438.31;5017193;28;45528;-81
2022/08/30 07:13:34;;;;;;;;;7.25;6.50;;;;;21.86;46.01;101433.56;5018946;28;45430;-81
2022/08/30 07:16:00;;;;;;;;;9.75;7.75;;;;;21.91;45.92;101436.09;5018401;28;45401;-81
2022/08/30 07:21:15;;;;;;;;;7.00;7.00;;;;;22.03;45.39;101438.28;5018791;28;45454;-81
2022/08/30 07:23:41;;;;;;;;;7.50;6.00;;;;;22.12;45.63;101437.91;5017326;28;45240;-81
2022/08/30 07:26:10;;;;;;;;;6.75;5.75;;;;;22.15;44.98;101440.44;5018866;28;45437;-81
2022/08/30 07:28:38;;;;;;;;;9.75;7.25;;;;;22.23;45.18;101441.03;5017647;28;48194;-81
2022/08/30 07:31:04;;;;;;;;;4.25;4.00;;;;;22.30;44.38;101447.03;5020201;28;45615;-81
2022/08/30 07:33:30;;;;;;;;;7.00;7.00;;;;;22.36;44.54;101449.47;5022206;28;45222;-82
2022/08/30 07:35:57;;;;;;;;;7.25;7.00;;;;;22.44;44.04;101444.63;5020668;28;45492;-81
2022/08/30 07:38:23;;;;;;;;;9.00;6.75;;;;;22.47;44.47;101440.97;5021829;28;45521;-81
2022/08/30 07:40:48;;;;;;;;;6.00;6.00;;;;;22.56;44.14;101442.38;5022244;28;45517;-81
2022/08/30 07:43:13;;;;;;;;;8.25;7.25;;;;;22.63;43.94;101449.22;5020784;28;45832;-81
2022/08/30 07:45:39;;;;;;;;;7.75;7.00;;;;;22.65;43.77;101442.00;5021994;28;45601;-81
2022/08/30 07:48:06;;;;;;;;;8.75;7.50;;;;;22.68;43.60;101439.16;5019991;28;48551;-81
2022/08/30 07:50:31;;;;;;;;;12.50;11.00;;;;;22.71;43.32;101439.03;5020433;28;45434;-81
2022/08/30 07:52:57;;;;;;;;;11.00;11.00;;;;;22.76;43.42;101442.41;5020265;28;45278;-82
2022/08/30 07:55:22;;;;;;;;;10.25;10.00;;;;;22.76;43.35;101438.84;5021378;28;45423;-81
2022/08/30 07:57:48;;;;;;;;;8.25;7.00;;;;;22.78;43.23;101445.91;5021283;28;45367;-82
2022/08/30 08:00:14;;;;;;;;;9.00;9.00;;;;;22.83;43.17;101453.75;5021650;28;45292;-81
2022/08/30 08:02:40;;;;;;;;;8.67;7.00;;;;;22.79;43.01;101444.06;5020240;28;45329;-81
2022/08/30 08:05:07;;;;;;;;;7.75;6.50;;;;;22.84;43.22;101448.31;5021590;28;45229;-81
2022/08/30 08:07:33;;;;;;;;;16.50;15.75;;;;;22.87;43.31;101449.97;5019856;28;47548;-81
2022/08/30 08:09:59;;;;;;;;;9.00;8.67;;;;;22.94;43.04;101455.97;5019903;28;45496;-82
2022/08/30 08:12:25;;;;;;;;;12.00;10.25;;;;;23.00;43.39;101450.34;5019644;28;45312;-82
2022/08/30 08:14:51;;;;;;;;;9.75;9.00;;;;;23.05;42.97;101457.25;5019441;28;45667;-82
2022/08/30 08:17:16;;;;;;;;;7.00;6.00;;;;;23.08;43.19;101450.88;5019530;28;48220;-81
2022/08/30 08:19:42;;;;;;;;;8.00;8.00;;;;;23.13;42.61;101450.69;5021357;28;45277;-81
2022/08/30 08:22:07;;;;;;;;;23.00;21.25;;;;;23.18;42.86;101452.22;5021116;28;45285;-82
2022/08/30 08:24:33;;;;;;;;;7.25;6.50;;;;;23.21;43.11;101459.28;5021557;28;45402;-81
2022/08/30 08:26:58;;;;;;;;;10.75;9.00;;;;;23.25;42.90;101452.81;5019507;28;47216;-82
2022/08/30 08:29:25;;;;;;;;;9.75;8.50;;;;;23.31;42.60;101468.66;5019657;28;45273;-82
2022/08/30 08:31:51;;;;;;;;;9.25;7.00;;;;;23.34;42.34;101460.47;5021171;28;45355;-82
2022/08/30 08:34:18;;;;;;;;;7.00;6.00;;;;;23.38;42.57;101463.88;5021213;28;45630;-82
2022/08/30 08:36:43;;;;;;;;;8.33;6.00;;;;;23.45;42.44;101471.59;5019532;28;46039;-82
2022/08/30 08:39:09;;;;;;;;;7.75;7.75;;;;;23.52;43.03;101470.38;5020801;28;45389;-82
2022/08/30 08:41:54;;;;;;;;;7.00;7.00;;;;;23.67;42.37;101476.84;5019229;28;45381;-81
2022/08/30 08:44:53;;;;;;;;;9.00;7.75;;;;;23.85;42.02;101479.66;5019709;28;45394;-81
2022/08/30 08:47:40;;;;;;;;;6.50;6.25;;;;;24.03;41.88;101477.88;5019454;28;47140;-81
2022/08/30 08:50:12;;;;;;;;;7.75;6.75;;;;;24.14;41.62;101478.25;5019640;28;45650;-81
2022/08/30 08:55:31;;;;;;;;;9.25;7.25;;;;;24.39;41.22;101488.66;5020451;28;45435;-81
2022/08/30 08:57:57;;;;;;;;;10.00;9.33;;;;;24.49;41.64;101484.59;5019067;28;47098;-81
2022/08/30 09:00:22;;;;;;;;;8.00;7.75;;;;;24.64;41.27;101483.84;5020487;28;45169;-81
2022/08/30 09:02:57;;;;;;;;;8.00;7.00;;;;;24.79;41.16;101484.84;5020621;28;45258;-81
2022/08/30 09:05:26;;;;;;;;;9.00;9.00;;;;;24.93;40.84;101488.66;5020951;28;45307;-81
2022/08/30 09:08:00;;;;;;;;;9.75;8.75;;;;;25.04;40.47;101497.03;5018993;28;46370;-81
2022/08/30 09:10:26;;;;;;;;;11.50;10.25;;;;;25.12;40.47;101496.66;5020582;28;45177;-82
2022/08/30 09:12:52;;;;;;;;;8.00;7.75;;;;;25.19;40.24;101498.97;5020314;28;45506;-81
2022/08/30 09:15:27;;;;;;;;;11.25;8.00;;;;;25.27;40.14;101496.75;5018732;28;45462;-81
2022/08/30 09:17:52;;;;;;;;;7.00;7.00;;;;;25.34;40.39;101491.00;5020511;28;45445;-82
2022/08/30 09:20:47;;;;;;;;;8.00;6.00;;;;;25.41;39.88;101489.75;5018725;28;45499;-82
2022/08/30 09:23:13;;;;;;;;;9.00;7.50;;;;;25.46;39.60;101498.44;5018073;28;45407;-81
2022/08/30 09:26:08;;;;;;;;;8.75;8.75;;;;;25.46;39.47;101496.63;5019113;28;45335;-81
2022/08/30 09:28:47;;;;;;;;;11.50;8.25;;;;;25.50;39.97;101494.63;5018270;28;47648;-81
2022/08/30 09:31:26;;;;;;;;;7.75;7.00;;;;;25.57;39.34;101492.47;5019903;28;45174;-81
2022/08/30 09:34:02;;;;;;;;;9.75;8.00;;;;;25.66;39.78;101502.75;5020138;28;45431;-81
2022/08/30 09:36:48;;;;;;;;;9.50;6.75;;;;;25.74;39.09;101503.19;5020018;28;45476;-81
2022/08/30 09:39:24;;;;;;;;;7.25;6.50;;;;;25.82;39.31;101500.06;5018422;28;47536;-81
2022/08/30 09:41:50;;;;;;;;;11.25;10.25;;;;;25.94;39.46;101502.13;5016890;28;45348;-81
2022/08/30 09:44:18;;;;;;;;;7.00;6.67;;;;;26.03;38.83;101500.72;4998676;28;45377;-81
2022/08/30 09:46:43;;;;;;;;;11.25;9.50;;;;;26.15;38.95;101502.75;5002957;28;45732;-81
2022/08/30 09:49:36;;;;;;;;;6.75;6.75;;;;;26.23;38.89;101496.91;5018373;28;46421;-81
2022/08/30 09:52:11;;;;;;;;;8.25;8.25;;;;;26.28;38.52;101498.41;5012639;28;45298;-81
2022/08/30 09:55:13;;;;;;;;;6.50;6.50;;;;;26.34;38.95;101502.56;5020190;28;45537;-81
2022/08/30 09:58:18;;;;;;;;;7.50;7.00;;;;;26.44;38.34;101505.59;5032067;28;45515;-82
2022/08/30 10:01:27;;;;;;;;;5.75;5.75;;;;;26.53;38.23;101505.09;5018902;28;47312;-82
2022/08/30 10:04:08;;;;;;;;;8.50;7.00;;;;;26.68;38.01;101506.00;5020099;28;45233;-81
2022/08/30 10:06:44;;;;;;;;;7.25;6.50;;;;;26.78;37.76;101507.19;5020006;28;45446;-81
2022/08/30 10:09:38;;;;;;;;;9.33;8.33;;;;;26.85;37.48;101511.28;5017910;28;45420;-81
2022/08/30 10:12:09;;;;;;;;;5.75;5.75;;;;;26.86;37.52;101510.31;5019650;28;45367;-81
2022/08/30 10:14:44;;;;;;;;;8.75;7.75;;;;;26.86;37.45;101507.63;5017827;28;47309;-82
2022/08/30 10:17:18;;;;;;;;;10.25;9.25;;;;;26.93;37.68;101517.09;5019481;28;45336;-80
2022/08/30 10:20:02;;;;;;;;;6.25;6.25;;;;;26.94;37.45;101504.44;5018075;28;45509;-80
2022/08/30 10:22:40;;;;;;;;;10.50;8.75;;;;;27.00;37.43;101506.81;5019539;28;45427;-81
2022/08/30 10:25:21;;;;;;;;;7.25;6.75;;;;;27.05;37.33;101500.16;5017613;28;45264;-83
2022/08/30 10:28:00;;;;;;;;;9.50;8.00;;;;;27.11;37.14;101504.31;5018169;28;45379;-83
2022/08/30 10:30:27;;;;;;;;;9.75;9.75;;;;;27.21;36.90;101500.13;5019057;28;45319;-80
2022/08/30 10:33:11;;;;;;;;;12.75;8.25;;;;;27.33;37.04;101511.13;5019616;28;45469;-81
2022/08/30 10:35:42;;;;;;;;;7.75;7.25;;;;;27.42;36.69;101507.84;5019177;28;45332;-81
2022/08/30 10:38:23;;;;;;;;;9.00;7.75;;;;;27.52;36.61;101506.31;5019078;28;45388;-81
2022/08/30 10:41:14;;;;;;;;;5.25;5.25;;;;;27.68;36.63;101506.22;5017435;28;45444;-81
2022/08/30 10:44:01;;;;;;;;;9.75;7.00;;;;;27.77;36.54;101504.75;5017351;28;47231;-81
2022/08/30 10:46:52;;;;;;;;;7.00;7.00;;;;;27.83;36.18;101504.41;5018854;28;45453;-81
2022/08/30 10:49:22;;;;;;;;;9.00;7.75;;;;;27.87;35.89;101511.34;5017277;28;45299;-82
2022/08/30 10:52:02;;;;;;;;;10.75;8.75;;;;;27.89;36.08;101517.53;5017386;28;45431;-82
2022/08/30 10:54:46;;;;;;;;;8.25;7.25;;;;;27.88;36.13;101510.38;5017674;28;47272;-81
2022/08/30 10:57:11;;;;;;;;;9.00;9.00;;;;;27.83;36.06;101505.28;5007911;28;45413;-82
2022/08/30 10:59:44;;;;;;;;;10.00;8.50;;;;;27.81;35.97;101501.78;4997493;28;45240;-81
2022/08/30 11:02:29;;;;;;;;;9.75;7.75;;;;;27.78;35.82;101501.09;4999254;28;45324;-81
2022/08/30 11:05:02;;;;;;;;;10.00;8.50;;;;;27.71;36.08;101501.47;5000823;28;47283;-81
2022/08/30 11:07:49;;;;;;;;;10.25;8.50;;;;;27.73;36.24;101508.63;5002267;28;45302;-82
2022/08/30 11:10:20;;;;;;;;;7.50;7.25;;;;;27.73;36.26;101512.19;5002476;28;45466;-81
2022/08/30 11:13:08;;;;;;;;;9.25;8.00;;;;;27.76;36.29;101511.13;5002278;28;45242;-82
2022/08/30 11:15:50;;;;;;;;;9.75;9.00;;;;;27.78;36.06;101503.81;5001618;28;46382;-82
2022/08/30 11:18:16;;;;;;;;;9.00;5.75;;;;;27.83;35.93;101507.13;5001996;28;45247;-82
2022/08/30 11:20:42;;;;;;;;;11.00;9.00;;;;;27.90;36.05;101512.00;5000979;28;45269;-81
2022/08/30 11:23:17;;;;;;;;;8.75;7.00;;;;;28.01;35.84;101518.56;5001097;28;45411;-81
2022/08/30 11:25:46;;;;;;;;;7.25;6.00;;;;;28.00;35.47;101511.44;5001637;28;45487;-81
2022/08/30 11:28:34;;;;;;;;;9.00;8.00;;;;;28.03;35.59;101505.81;5002769;28;45182;-81
2022/08/30 11:31:19;;;;;;;;;12.50;9.00;;;;;28.07;35.74;101510.94;5001301;28;45459;-81
2022/08/30 11:33:45;;;;;;;;;7.50;7.50;;;;;28.15;35.52;101510.44;5000122;28;45500;-82
2022/08/30 11:36:31;;;;;;;;;8.50;7.00;;;;;28.17;35.50;101505.75;5011612;28;46752;-82
2022/08/30 11:39:50;;;;;;;;;9.00;8.75;;;;;28.24;35.60;101499.00;5009003;28;45381;-81
2022/08/30 11:42:41;;;;;;;;;7.75;6.50;;;;;28.32;35.90;101498.47;5022280;28;45563;-81
2022/08/30 11:45:21;;;;;;;;;8.00;7.50;;;;;28.32;35.30;101499.34;5021707;28;45393;-82